Time;durP1;ratioP1;P1;durP2;ratioP2;P2;SDS_P1;SDS_P2;PMS_P1;PMS_P2;Temp;Humidity;BMP_temperature;BMP_pressure;BME280_temperature;BME280_humidity;BME280_pressure;Samples;Min_cycle;Max_cycle;Signal;HPM_P1;HPM_P2
2023/05/03 00:02:01;;;;;;;10.35;4.18;;;6.40;99.90;;;;;;4992181;28;20050;-72
2023/05/03 00:04:27;;;;;;;11.65;3.85;;;6.50;99.90;;;;;;4992510;28;20046;-71
2023/05/03 00:06:53;;;;;;;13.23;4.28;;;6.50;99.90;;;;;;4973857;28;20087;-70
2023/05/03 00:09:20;;;;;;;15.32;4.40;;;6.50;99.90;;;;;;4992397;28;20042;-70
2023/05/03 00:11:45;;;;;;;10.20;3.72;;;6.50;99.90;;;;;;4991673;28;20042;-71
2023/05/03 00:14:11;;;;;;;11.45;3.90;;;6.60;99.90;;;;;;4991785;28;20022;-72
2023/05/03 00:16:37;;;;;;;12.20;4.68;;;6.60;99.90;;;;;;4974866;28;20086;-71
2023/05/03 00:19:02;;;;;;;9.77;4.07;;;6.60;99.90;;;;;;4992189;28;20057;-72
2023/05/03 00:21:28;;;;;;;8.82;3.97;;;6.60;99.90;;;;;;4992578;28;20035;-72
2023/05/03 00:23:54;;;;;;;11.50;3.90;;;6.60;99.90;;;;;;4991788;28;20018;-71
2023/05/03 00:26:21;;;;;;;10.15;4.30;;;6.60;99.90;;;;;;4991616;28;20049;-72
2023/05/03 00:28:46;;;;;;;8.32;3.72;;;6.60;99.90;;;;;;4990641;28;20026;-70
2023/05/03 00:31:12;;;;;;;12.20;4.20;;;6.60;99.90;;;;;;4991279;28;20041;-74
2023/05/03 00:33:38;;;;;;;9.27;3.67;;;6.60;99.90;;;;;;4990966;28;20031;-71
2023/05/03 00:36:12;;;;;;;10.05;4.03;;;6.70;99.90;;;;;;4991350;28;20033;-71
2023/05/03 00:38:38;;;;;;;12.77;4.22;;;6.60;99.90;;;;;;4992423;28;20042;-71
2023/05/03 00:41:04;;;;;;;8.68;3.65;;;6.60;99.90;;;;;;4990473;28;20050;-72
2023/05/03 00:43:31;;;;;;;11.73;4.25;;;6.50;99.90;;;;;;4974866;28;20023;-73
2023/05/03 00:45:58;;;;;;;16.38;4.72;;;6.50;99.90;;;;;;4991848;28;20030;-72
2023/05/03 00:48:24;;;;;;;11.00;4.50;;;6.40;99.90;;;;;;4991496;28;20498;-71
2023/05/03 00:50:50;;;;;;;13.82;3.60;;;6.40;99.90;;;;;;4992250;28;20045;-71
2023/05/03 00:53:16;;;;;;;11.40;4.05;;;6.40;99.90;;;;;;4989945;28;20023;-72
2023/05/03 00:55:43;;;;;;;14.70;4.78;;;6.40;99.90;;;;;;4991483;28;20049;-71
2023/05/03 00:58:09;;;;;;;11.73;4.50;;;6.40;99.90;;;;;;4992376;28;20026;-72
2023/05/03 01:00:35;;;;;;;15.48;4.20;;;6.40;99.90;;;;;;4990799;28;20779;-72
2023/05/03 01:03:00;;;;;;;15.55;4.43;;;6.40;99.90;;;;;;4991792;28;20026;-70
2023/05/03 01:05:32;;;;;;;11.27;4.15;;;6.30;99.90;;;;;;4992413;28;20038;-71
2023/05/03 01:08:21;;;;;;;14.52;4.10;;;6.30;99.90;;;;;;4991013;28;20053;-73
2023/05/03 01:10:49;;;;;;;11.40;4.18;;;6.40;99.90;;;;;;4974232;28;20059;-70
2023/05/03 01:13:33;;;;;;;13.38;4.28;;;6.40;99.90;;;;;;4990704;28;20508;-70
2023/05/03 01:16:10;;;;;;;12.00;4.28;;;6.40;99.90;;;;;;4991314;28;20082;-73
2023/05/03 01:18:43;;;;;;;16.05;4.18;;;6.40;99.90;;;;;;4995749;28;20031;-72
2023/05/03 01:21:12;;;;;;;12.60;4.10;;;6.40;99.90;;;;;;4995361;28;20034;-71
2023/05/03 01:23:59;;;;;;;12.88;4.30;;;6.40;99.90;;;;;;4995465;28;20090;-71
2023/05/03 01:26:26;;;;;;;15.50;4.72;;;6.30;99.90;;;;;;4995155;28;20018;-71
2023/05/03 01:28:52;;;;;;;13.15;5.15;;;6.30;99.90;;;;;;4977848;28;20045;-71
2023/05/03 01:31:36;;;;;;;11.25;4.35;;;6.30;99.90;;;;;;4978023;28;20093;-72
2023/05/03 01:34:38;;;;;;;10.03;4.20;;;6.30;99.90;;;;;;4995194;28;20125;-72
2023/05/03 01:37:06;;;;;;;17.55;4.50;;;6.30;99.90;;;;;;4994880;28;20026;-71
2023/05/03 01:39:40;;;;;;;13.25;4.13;;;6.30;99.90;;;;;;4994776;28;20042;-72
2023/05/03 01:42:06;;;;;;;9.98;4.10;;;6.30;99.90;;;;;;4995044;28;20037;-71
2023/05/03 01:44:33;;;;;;;11.25;4.07;;;6.40;99.90;;;;;;4994844;28;20692;-71
2023/05/03 01:47:01;;;;;;;12.00;4.20;;;6.40;99.90;;;;;;4977638;28;20027;-70
2023/05/03 01:49:26;;;;;;;10.80;4.40;;;6.40;99.90;;;;;;4994588;28;20023;-73
2023/05/03 01:51:52;;;;;;;13.45;4.07;;;6.40;99.90;;;;;;4995029;28;20029;-70
2023/05/03 01:54:17;;;;;;;12.60;3.65;;;6.40;99.90;;;;;;4978006;28;20547;-71
2023/05/03 01:56:43;;;;;;;8.68;4.05;;;6.40;99.90;;;;;;4977086;28;20033;-71
2023/05/03 01:59:10;;;;;;;11.82;4.18;;;6.50;99.90;;;;;;4993637;28;20116;-72
2023/05/03 02:01:36;;;;;;;9.43;4.38;;;6.40;99.90;;;;;;4995228;28;20090;-71
2023/05/03 02:04:01;;;;;;;10.70;4.13;;;6.50;99.90;;;;;;4994087;28;20026;-72
2023/05/03 02:06:27;;;;;;;8.68;3.70;;;6.50;99.90;;;;;;4976885;28;20038;-72
2023/05/03 02:08:53;;;;;;;14.43;4.25;;;6.50;99.90;;;;;;4995465;28;20041;-72
2023/05/03 02:11:20;;;;;;;9.00;3.80;;;6.40;99.90;;;;;;4974010;28;20041;-71
2023/05/03 02:13:48;;;;;;;11.65;4.40;;;6.40;99.90;;;;;;4992996;28;20045;-72
2023/05/03 02:16:13;;;;;;;11.57;4.53;;;6.50;99.90;;;;;;4972715;28;20018;-72
2023/05/03 02:18:39;;;;;;;13.10;3.90;;;6.50;99.90;;;;;;4976004;28;20424;-71
2023/05/03 02:21:05;;;;;;;8.73;4.50;;;6.50;99.90;;;;;;4990233;28;20069;-71
2023/05/03 02:23:31;;;;;;;13.75;4.53;;;6.50;99.90;;;;;;4991546;28;20022;-72
2023/05/03 02:25:57;;;;;;;11.73;4.55;;;6.50;99.90;;;;;;4991828;28;20027;-73
2023/05/03 02:28:22;;;;;;;11.48;4.18;;;6.50;99.90;;;;;;4989239;28;20030;-70
2023/05/03 02:30:48;;;;;;;10.00;4.15;;;6.50;99.90;;;;;;4993846;28;20119;-71
2023/05/03 02:33:14;;;;;;;10.13;4.15;;;6.50;99.90;;;;;;4991732;28;20112;-71
2023/05/03 02:35:39;;;;;;;12.38;4.03;;;6.50;99.90;;;;;;4990391;28;20050;-70
2023/05/03 02:38:05;;;;;;;10.02;4.30;;;6.60;99.90;;;;;;4991860;28;20042;-71
2023/05/03 02:40:30;;;;;;;11.88;4.45;;;6.60;99.90;;;;;;4972432;28;20039;-71
2023/05/03 02:42:56;;;;;;;12.68;4.25;;;6.60;99.90;;;;;;4992370;28;20094;-70
2023/05/03 02:45:21;;;;;;;6.78;4.20;;;6.70;99.90;;;;;;4991785;28;20030;-71
2023/05/03 02:47:47;;;;;;;12.90;4.22;;;6.70;99.90;;;;;;4990241;28;20034;-72
2023/05/03 02:50:12;;;;;;;9.00;3.92;;;6.70;99.90;;;;;;4973309;28;20049;-69
2023/05/03 02:52:38;;;;;;;18.77;4.50;;;6.70;99.90;;;;;;4972273;28;20030;-71
2023/05/03 02:55:05;;;;;;;18.75;5.35;;;6.70;99.90;;;;;;4974066;28;20022;-71
2023/05/03 02:57:30;;;;;;;12.07;4.10;;;6.70;99.90;;;;;;4973550;28;20054;-73
2023/05/03 02:59:56;;;;;;;9.18;4.28;;;6.70;99.90;;;;;;4991414;28;20035;-72
2023/05/03 03:02:22;;;;;;;11.90;4.35;;;6.80;99.90;;;;;;4989988;28;20066;-71
2023/05/03 03:04:47;;;;;;;14.48;4.78;;;6.80;99.90;;;;;;4990913;28;20049;-70
2023/05/03 03:07:13;;;;;;;22.85;4.75;;;6.80;99.90;;;;;;4989805;28;20066;-71
2023/05/03 03:09:38;;;;;;;13.30;4.68;;;6.80;99.90;;;;;;4991283;28;20459;-70
2023/05/03 03:12:04;;;;;;;10.02;4.10;;;6.80;99.90;;;;;;4973212;28;20114;-71
2023/05/03 03:14:30;;;;;;;10.57;4.57;;;6.80;99.90;;;;;;4990640;28;20035;-72
2023/05/03 03:16:57;;;;;;;17.80;4.65;;;6.80;99.90;;;;;;4991120;28;20027;-72
2023/05/03 03:19:22;;;;;;;12.27;4.55;;;6.80;99.90;;;;;;4989038;28;20045;-71
2023/05/03 03:21:48;;;;;;;11.23;4.82;;;6.80;99.90;;;;;;4992928;28;20129;-71
2023/05/03 03:24:14;;;;;;;12.25;4.38;;;6.80;99.90;;;;;;4990690;28;20034;-72
2023/05/03 03:26:40;;;;;;;8.73;4.70;;;6.80;99.90;;;;;;4990219;28;20022;-70
2023/05/03 03:29:05;;;;;;;9.90;4.63;;;6.80;99.90;;;;;;4990310;28;20033;-71
2023/05/03 03:31:31;;;;;;;13.55;4.47;;;6.80;99.90;;;;;;4971466;28;20023;-71
2023/05/03 03:33:56;;;;;;;11.75;4.63;;;6.80;99.90;;;;;;4974564;28;20031;-71
2023/05/03 03:36:22;;;;;;;8.93;4.47;;;6.80;99.90;;;;;;4989187;28;20026;-71
2023/05/03 03:38:47;;;;;;;11.48;4.93;;;6.70;99.90;;;;;;4988220;28;20058;-71
2023/05/03 03:41:13;;;;;;;18.02;4.70;;;6.80;99.90;;;;;;4988602;28;20061;-71
2023/05/03 03:43:39;;;;;;;10.50;5.03;;;6.70;99.90;;;;;;4973820;28;20030;-70
2023/05/03 03:46:04;;;;;;;10.93;5.00;;;6.70;99.90;;;;;;4988230;28;20026;-71
2023/05/03 03:48:30;;;;;;;14.77;5.25;;;6.70;99.90;;;;;;4990372;28;20053;-72
2023/05/03 03:50:55;;;;;;;10.40;5.20;;;6.70;99.90;;;;;;4989449;28;20023;-73
2023/05/03 03:53:21;;;;;;;11.68;5.28;;;6.80;99.90;;;;;;4971317;28;20034;-72
2023/05/03 03:55:47;;;;;;;18.52;5.68;;;6.70;99.90;;;;;;4971166;28;20050;-72
2023/05/03 03:58:13;;;;;;;9.73;5.20;;;6.70;99.90;;;;;;4972420;28;20026;-71
2023/05/03 04:00:39;;;;;;;15.02;5.20;;;6.70;99.90;;;;;;4972456;28;20049;-71
2023/05/03 04:03:05;;;;;;;16.83;5.93;;;6.70;99.90;;;;;;4985121;28;20479;-71
2023/05/03 04:05:31;;;;;;;15.63;5.18;;;6.70;99.90;;;;;;4988040;28;20023;-71
2023/05/03 04:07:57;;;;;;;13.45;5.35;;;6.70;99.90;;;;;;4992118;28;20046;-72
2023/05/03 04:10:22;;;;;;;12.90;5.45;;;6.80;99.90;;;;;;4992624;28;20118;-69
2023/05/03 04:12:48;;;;;;;13.27;4.85;;;6.80;99.90;;;;;;4989666;28;20050;-69
2023/05/03 04:15:13;;;;;;;9.65;4.80;;;6.80;99.90;;;;;;4992518;28;20026;-69
2023/05/03 04:17:39;;;;;;;12.60;4.85;;;6.80;99.90;;;;;;4991820;28;20029;-69
2023/05/03 04:20:06;;;;;;;12.32;5.32;;;6.80;99.90;;;;;;4992080;28;20037;-70
2023/05/03 04:22:32;;;;;;;12.68;4.78;;;6.90;99.90;;;;;;4975264;28;20703;-70
2023/05/03 04:25:00;;;;;;;10.82;4.75;;;6.90;99.90;;;;;;4973187;28;20027;-69
2023/05/03 04:27:25;;;;;;;13.55;5.65;;;7.00;99.90;;;;;;4992298;28;20023;-69
2023/05/03 04:29:51;;;;;;;11.25;4.82;;;7.00;99.90;;;;;;4991870;28;20103;-68
2023/05/03 04:32:22;;;;;;;9.80;4.78;;;7.00;99.90;;;;;;4974644;28;20045;-70
2023/05/03 04:34:51;;;;;;;15.18;5.20;;;7.00;99.90;;;;;;4990776;28;20041;-69
2023/05/03 04:37:18;;;;;;;12.13;4.88;;;7.10;99.90;;;;;;4992182;28;20019;-68
2023/05/03 04:39:44;;;;;;;12.55;5.20;;;7.10;99.90;;;;;;4991540;28;20058;-70
2023/05/03 04:42:10;;;;;;;14.13;5.10;;;7.10;99.90;;;;;;4989690;28;20046;-69
2023/05/03 04:44:36;;;;;;;12.27;5.50;;;7.10;99.90;;;;;;4990350;28;20042;-69
2023/05/03 04:47:01;;;;;;;11.63;5.00;;;7.20;99.90;;;;;;4990850;28;20103;-70
2023/05/03 04:49:27;;;;;;;9.45;4.82;;;7.20;99.90;;;;;;4989229;28;20045;-70
2023/05/03 04:51:56;;;;;;;11.52;4.93;;;7.20;99.90;;;;;;4990061;28;20030;-69
2023/05/03 04:54:21;;;;;;;12.90;5.03;;;7.20;99.90;;;;;;4990969;28;20050;-69
2023/05/03 04:56:47;;;;;;;16.60;4.85;;;7.20;99.90;;;;;;4991715;28;20039;-68
2023/05/03 04:59:13;;;;;;;13.40;4.80;;;7.20;99.90;;;;;;4990167;28;20051;-69
2023/05/03 05:01:38;;;;;;;13.68;4.30;;;7.30;99.90;;;;;;4984695;28;20102;-69
2023/05/03 05:04:04;;;;;;;14.10;4.65;;;7.30;99.90;;;;;;4985080;28;20030;-69
2023/05/03 05:06:30;;;;;;;10.70;4.97;;;7.40;99.90;;;;;;4973246;28;20046;-68
2023/05/03 05:08:55;;;;;;;8.75;4.65;;;7.40;99.90;;;;;;4990197;28;20039;-70
2023/05/03 05:11:22;;;;;;;9.10;5.05;;;7.50;99.90;;;;;;4990472;28;20475;-70
2023/05/03 05:13:48;;;;;;;12.88;4.28;;;7.50;99.90;;;;;;4991102;28;20030;-69
2023/05/03 05:16:14;;;;;;;12.60;4.25;;;7.60;99.90;;;;;;4972885;28;20081;-70
2023/05/03 05:18:40;;;;;;;13.18;5.32;;;7.60;99.90;;;;;;4991896;28;20023;-69
2023/05/03 05:21:05;;;;;;;12.15;4.68;;;7.60;99.90;;;;;;4990794;28;20127;-69
2023/05/03 05:23:31;;;;;;;13.50;4.57;;;7.60;99.90;;;;;;4992003;28;20026;-70
2023/05/03 05:25:59;;;;;;;15.93;4.43;;;7.60;99.90;;;;;;4992650;28;20094;-70
2023/05/03 05:28:26;;;;;;;11.88;4.00;;;7.70;99.90;;;;;;4992271;28;20022;-68
2023/05/03 05:30:52;;;;;;;14.23;4.60;;;7.70;99.90;;;;;;4989515;28;20029;-69
2023/05/03 05:33:18;;;;;;;10.07;4.07;;;7.80;99.90;;;;;;4992032;28;20062;-69
2023/05/03 05:35:45;;;;;;;12.55;4.40;;;7.70;99.90;;;;;;4990519;28;20112;-69
2023/05/03 05:38:11;;;;;;;11.25;3.88;;;7.80;99.90;;;;;;4974418;28;20023;-70
2023/05/03 05:40:37;;;;;;;12.32;4.18;;;7.80;99.90;;;;;;4991525;28;20121;-70
2023/05/03 05:43:03;;;;;;;14.90;4.72;;;7.90;99.90;;;;;;4991817;28;20022;-71
2023/05/03 05:45:29;;;;;;;8.88;3.50;;;7.90;99.90;;;;;;4989465;28;20455;-69
2023/05/03 05:47:55;;;;;;;6.45;3.90;;;7.90;99.90;;;;;;4991777;28;20026;-69
2023/05/03 05:50:21;;;;;;;9.88;3.85;;;8.00;99.90;;;;;;4991621;28;20022;-68
2023/05/03 05:52:49;;;;;;;10.25;3.60;;;8.00;99.90;;;;;;4991876;28;20027;-69
2023/05/03 05:55:15;;;;;;;11.65;3.65;;;8.10;99.90;;;;;;4992366;28;20090;-69
2023/05/03 05:57:41;;;;;;;8.85;3.65;;;8.10;99.90;;;;;;4989492;28;20070;-70
2023/05/03 06:00:13;;;;;;;7.93;3.83;;;8.20;99.90;;;;;;4991383;28;20053;-70
2023/05/03 06:02:39;;;;;;;11.05;4.10;;;8.20;99.90;;;;;;4974892;28;20061;-69
2023/05/03 06:05:05;;;;;;;11.07;4.10;;;8.30;99.90;;;;;;4993728;28;20023;-69
2023/05/03 06:07:30;;;;;;;9.35;4.18;;;8.30;99.90;;;;;;4994426;28;20035;-70
2023/05/03 06:09:56;;;;;;;9.48;3.80;;;8.40;99.90;;;;;;4993694;28;20023;-70
2023/05/03 06:12:22;;;;;;;16.08;3.92;;;8.40;99.90;;;;;;4976096;28;20070;-70
2023/05/03 06:14:47;;;;;;;9.15;4.15;;;8.50;99.90;;;;;;4995082;28;20033;-70
2023/05/03 06:17:13;;;;;;;11.57;3.75;;;8.60;99.90;;;;;;4994955;28;20019;-69
2023/05/03 06:19:39;;;;;;;10.77;3.22;;;8.60;99.90;;;;;;4994352;28;20144;-69
2023/05/03 06:22:04;;;;;;;12.82;3.67;;;8.70;99.90;;;;;;4995438;28;20042;-70
2023/05/03 06:24:31;;;;;;;9.25;3.42;;;8.70;99.90;;;;;;4994379;28;20088;-69
2023/05/03 06:26:57;;;;;;;7.35;3.33;;;8.70;99.90;;;;;;4994861;28;20019;-70
2023/05/03 06:29:23;;;;;;;8.05;2.95;;;8.80;99.90;;;;;;4995546;28;20034;-70
2023/05/03 06:31:49;;;;;;;9.15;3.13;;;8.80;99.90;;;;;;4993813;28;20073;-70
2023/05/03 06:34:18;;;;;;;13.82;3.88;;;8.90;99.90;;;;;;4977265;28;20391;-69
2023/05/03 06:36:44;;;;;;;8.52;3.60;;;9.00;99.90;;;;;;4994280;28;20022;-69
2023/05/03 06:39:10;;;;;;;8.65;2.75;;;9.10;99.90;;;;;;4994638;28;20027;-69
2023/05/03 06:41:35;;;;;;;13.02;2.80;;;9.20;99.90;;;;;;4993620;28;20445;-70
2023/05/03 06:44:02;;;;;;;6.30;2.50;;;9.20;99.90;;;;;;4977271;28;20029;-70
2023/05/03 06:46:28;;;;;;;7.57;2.60;;;9.20;99.90;;;;;;4992088;28;20033;-69
2023/05/03 06:48:55;;;;;;;7.07;2.35;;;9.20;99.90;;;;;;4993965;28;20086;-70
2023/05/03 06:51:29;;;;;;;6.75;2.05;;;9.30;99.90;;;;;;4975845;28;20685;-70
2023/05/03 06:53:55;;;;;;;7.00;2.53;;;9.30;99.90;;;;;;4973564;28;20054;-70
2023/05/03 06:56:22;;;;;;;8.63;2.30;;;9.40;99.90;;;;;;4992251;28;20089;-69
2023/05/03 06:58:48;;;;;;;10.98;2.20;;;9.50;99.90;;;;;;4993987;28;20023;-69
2023/05/03 07:01:14;;;;;;;7.82;2.88;;;9.60;99.90;;;;;;4993057;28;20042;-69
2023/05/03 07:03:39;;;;;;;5.50;2.55;;;9.70;99.90;;;;;;4993152;28;20018;-70
2023/05/03 07:06:05;;;;;;;6.07;2.10;;;9.70;99.90;;;;;;4993354;28;20022;-69
2023/05/03 07:08:31;;;;;;;13.70;2.30;;;9.80;99.90;;;;;;4994458;28;20026;-70
2023/05/03 07:10:57;;;;;;;6.57;2.42;;;9.80;99.90;;;;;;4992615;28;20070;-71
2023/05/03 07:13:23;;;;;;;5.18;2.10;;;9.80;99.90;;;;;;4993325;28;20034;-69
2023/05/03 07:15:49;;;;;;;5.85;2.28;;;9.80;99.90;;;;;;4993700;28;20027;-69
2023/05/03 07:18:15;;;;;;;9.65;2.42;;;9.80;99.90;;;;;;4985395;28;20046;-69
2023/05/03 07:20:40;;;;;;;7.57;1.80;;;9.90;99.90;;;;;;4992848;28;20065;-71
2023/05/03 07:23:06;;;;;;;6.25;2.22;;;9.80;99.90;;;;;;4993888;28;20027;-69
2023/05/03 07:25:34;;;;;;;7.30;2.50;;;9.80;99.90;;;;;;4992037;28;20561;-70
2023/05/03 07:28:01;;;;;;;7.35;2.60;;;9.80;99.90;;;;;;4990141;28;20027;-69
2023/05/03 07:30:26;;;;;;;7.22;2.08;;;9.80;99.90;;;;;;4974284;28;20057;-69
2023/05/03 07:32:52;;;;;;;6.70;2.10;;;9.70;99.90;;;;;;4992137;28;20499;-70
2023/05/03 07:35:18;;;;;;;7.60;2.20;;;9.70;99.90;;;;;;4974048;28;20389;-71
2023/05/03 07:37:43;;;;;;;5.65;2.25;;;9.80;99.90;;;;;;4991350;28;20517;-69
2023/05/03 07:40:10;;;;;;;8.55;2.40;;;9.80;99.90;;;;;;4991178;28;20049;-69
2023/05/03 07:42:36;;;;;;;4.38;2.05;;;9.90;99.90;;;;;;4989174;28;20031;-70
2023/05/03 07:45:02;;;;;;;4.65;2.40;;;9.90;99.90;;;;;;4991135;28;20086;-70
2023/05/03 07:47:27;;;;;;;3.30;1.63;;;9.90;99.90;;;;;;4989302;28;20046;-71
2023/05/03 07:49:53;;;;;;;3.90;1.70;;;10.00;99.90;;;;;;4991756;28;20467;-69
2023/05/03 07:52:19;;;;;;;5.50;2.20;;;10.00;99.90;;;;;;4971606;28;20097;-70
2023/05/03 07:54:45;;;;;;;9.05;2.83;;;10.20;99.90;;;;;;4992402;28;20049;-69
2023/05/03 07:57:15;;;;;;;4.97;2.05;;;10.20;99.90;;;;;;4991279;28;20034;-69
2023/05/03 07:59:41;;;;;;;3.85;1.42;;;10.20;99.90;;;;;;4990710;28;20094;-71
2023/05/03 08:02:08;;;;;;;5.47;1.88;;;10.30;99.90;;;;;;4992238;28;20034;-69
2023/05/03 08:04:33;;;;;;;7.93;1.80;;;10.50;99.90;;;;;;4993321;28;20038;-70
2023/05/03 08:07:01;;;;;;;5.45;1.50;;;10.80;99.90;;;;;;4992866;28;20038;-69
2023/05/03 08:09:27;;;;;;;7.30;1.50;;;11.10;99.90;;;;;;4992894;28;20028;-71
2023/05/03 08:11:54;;;;;;;5.30;1.52;;;11.30;99.90;;;;;;4975004;28;20046;-69
2023/05/03 08:14:19;;;;;;;10.23;1.83;;;11.40;99.90;;;;;;4992861;28;20066;-69
2023/05/03 08:16:45;;;;;;;4.50;1.52;;;11.40;99.90;;;;;;4992563;28;20042;-69
2023/05/03 08:19:10;;;;;;;5.68;1.67;;;11.30;99.90;;;;;;4974903;28;20034;-69
2023/05/03 08:21:36;;;;;;;3.38;1.77;;;11.40;99.90;;;;;;4987425;28;20029;-67
2023/05/03 08:24:04;;;;;;;5.00;1.70;;;11.40;99.90;;;;;;4970791;28;20472;-70
2023/05/03 08:26:30;;;;;;;5.95;1.90;;;11.30;99.90;;;;;;4984595;28;20058;-68
2023/05/03 08:28:56;;;;;;;3.97;1.75;;;11.30;99.90;;;;;;4989292;28;20034;-68
2023/05/03 08:31:21;;;;;;;6.68;1.70;;;11.30;99.90;;;;;;4974795;28;20035;-71
2023/05/03 08:33:47;;;;;;;2.28;1.40;;;11.30;99.90;;;;;;4992573;28;20490;-70
2023/05/03 08:36:13;;;;;;;8.00;1.63;;;11.50;99.90;;;;;;4992801;28;20049;-67
2023/05/03 08:38:40;;;;;;;8.43;1.70;;;11.50;99.90;;;;;;4992372;28;20023;-68
2023/05/03 08:41:29;;;;;;;8.63;1.75;;;11.60;99.90;;;;;;4992059;28;20140;-68
2023/05/03 08:43:56;;;;;;;3.13;1.40;;;11.80;99.90;;;;;;4992138;28;20049;-68
2023/05/03 08:46:24;;;;;;;5.63;1.42;;;11.80;99.90;;;;;;4990894;28;20025;-68
2023/05/03 08:48:51;;;;;;;4.97;1.88;;;11.90;99.90;;;;;;4991472;28;20027;-68
2023/05/03 08:51:18;;;;;;;6.80;1.85;;;12.00;99.90;;;;;;4989905;28;20026;-70
2023/05/03 08:53:45;;;;;;;7.07;2.00;;;11.90;99.90;;;;;;4986617;28;20030;-71
2023/05/03 08:56:15;;;;;;;7.80;1.80;;;11.80;99.90;;;;;;4962704;28;20030;-68
2023/05/03 08:58:41;;;;;;;4.57;1.90;;;11.80;99.90;;;;;;4991127;28;20031;-69
2023/05/03 09:01:08;;;;;;;5.43;1.63;;;11.80;99.90;;;;;;4990899;28;20035;-69
2023/05/03 09:03:34;;;;;;;7.60;1.90;;;11.80;99.90;;;;;;4988956;28;20380;-69
2023/05/03 09:06:03;;;;;;;5.28;1.92;;;11.90;99.90;;;;;;4991484;28;20023;-70
2023/05/03 09:08:30;;;;;;;8.45;1.67;;;11.90;99.90;;;;;;4991609;28;20086;-68
2023/05/03 09:10:56;;;;;;;9.20;2.13;;;11.80;99.90;;;;;;4990794;28;20110;-70
2023/05/03 09:13:31;;;;;;;6.28;2.17;;;11.90;99.90;;;;;;4992499;28;20050;-69
2023/05/03 09:15:57;;;;;;;7.85;2.00;;;11.90;99.90;;;;;;4991366;28;20027;-69
2023/05/03 09:18:23;;;;;;;3.75;1.90;;;11.90;99.90;;;;;;4991041;28;20049;-70
2023/05/03 09:20:50;;;;;;;7.20;1.95;;;11.80;99.90;;;;;;4990858;28;20030;-69
2023/05/03 09:23:18;;;;;;;7.40;2.38;;;11.70;99.90;;;;;;4992239;28;20427;-69
2023/05/03 09:25:49;;;;;;;5.25;2.00;;;11.70;99.90;;;;;;4991466;28;20018;-68
2023/05/03 09:28:16;;;;;;;8.55;1.80;;;11.70;99.90;;;;;;4991725;28;20968;-69
2023/05/03 09:30:46;;;;;;;6.32;2.10;;;11.80;99.90;;;;;;4991186;28;20023;-68
2023/05/03 09:33:19;;;;;;;5.05;1.80;;;11.80;99.90;;;;;;4991290;28;20042;-68
2023/05/03 09:35:56;;;;;;;5.97;2.30;;;11.90;99.90;;;;;;4992166;28;20072;-68
2023/05/03 09:38:30;;;;;;;5.15;1.70;;;12.00;99.90;;;;;;4994266;28;20050;-68
2023/05/03 09:40:55;;;;;;;5.60;1.90;;;12.10;99.90;;;;;;4995410;28;20141;-71
2023/05/03 09:43:21;;;;;;;4.05;1.70;;;12.20;99.90;;;;;;4995623;28;20038;-68
2023/05/03 09:45:47;;;;;;;4.07;1.50;;;12.20;99.90;;;;;;4977507;28;20373;-68
2023/05/03 09:48:13;;;;;;;3.97;1.75;;;12.20;99.90;;;;;;4995181;28;20022;-68
2023/05/03 09:50:39;;;;;;;5.55;1.65;;;12.20;99.90;;;;;;4995437;28;20030;-70
2023/05/03 09:53:06;;;;;;;5.18;1.77;;;12.10;99.90;;;;;;4992058;28;20019;-69
2023/05/03 09:55:39;;;;;;;5.40;1.70;;;12.10;99.90;;;;;;4976956;28;20098;-69
2023/05/03 09:58:06;;;;;;;6.53;1.80;;;12.00;99.90;;;;;;4994992;28;20023;-69
2023/05/03 10:00:36;;;;;;;5.65;2.05;;;11.90;99.90;;;;;;4993859;28;20065;-69
2023/05/03 10:03:09;;;;;;;6.15;1.73;;;11.90;99.90;;;;;;4994202;28;20562;-69
2023/05/03 10:05:42;;;;;;;6.43;2.38;;;12.00;99.90;;;;;;4994501;28;20023;-69
2023/05/03 10:08:10;;;;;;;6.55;2.05;;;12.20;99.90;;;;;;4991075;28;20035;-69
2023/05/03 10:10:38;;;;;;;6.75;1.83;;;12.20;99.90;;;;;;4992963;28;20109;-69
2023/05/03 10:13:03;;;;;;;4.43;1.90;;;12.20;99.90;;;;;;4990369;28;20050;-69
2023/05/03 10:15:30;;;;;;;5.30;2.30;;;12.30;99.90;;;;;;4993355;28;20510;-70
2023/05/03 10:17:58;;;;;;;3.22;1.98;;;12.30;99.90;;;;;;4995365;28;20054;-70
2023/05/03 10:20:38;;;;;;;6.05;2.10;;;12.20;99.90;;;;;;4993454;28;20045;-70
2023/05/03 10:23:04;;;;;;;3.63;1.70;;;12.10;99.90;;;;;;4994615;28;20026;-70
2023/05/03 10:25:31;;;;;;;6.03;2.40;;;12.10;99.90;;;;;;4991797;28;20027;-70
2023/05/03 10:28:07;;;;;;;5.18;2.38;;;12.20;99.90;;;;;;4994288;28;20042;-70
2023/05/03 10:30:35;;;;;;;6.35;2.17;;;12.20;99.90;;;;;;4990954;28;20074;-69
2023/05/03 10:33:13;;;;;;;7.55;2.30;;;12.20;99.90;;;;;;4974515;28;20614;-70
2023/05/03 10:35:41;;;;;;;4.75;1.95;;;12.30;99.90;;;;;;4988497;28;20031;-71
2023/05/03 10:38:19;;;;;;;6.47;1.80;;;12.80;99.90;;;;;;4991820;28;20056;-71
2023/05/03 10:40:45;;;;;;;5.72;2.08;;;13.30;99.90;;;;;;4972001;28;20043;-69
2023/05/03 10:43:32;;;;;;;7.65;2.10;;;13.70;99.90;;;;;;4989725;28;20056;-69
2023/05/03 10:46:10;;;;;;;4.68;1.88;;;14.10;99.90;;;;;;4985004;28;20034;-72
2023/05/03 10:48:36;;;;;;;3.60;1.73;;;14.40;99.90;;;;;;4983423;28;20067;-69
2023/05/03 10:51:42;;;;;;;5.35;2.00;;;14.60;99.90;;;;;;4965715;28;20053;-71
2023/05/03 10:54:08;;;;;;;5.40;1.98;;;14.70;99.90;;;;;;4989731;28;20057;-69
2023/05/03 10:56:50;;;;;;;5.43;2.25;;;15.00;99.90;;;;;;4982009;28;20030;-70
2023/05/03 10:59:15;;;;;;;4.85;1.92;;;15.20;99.90;;;;;;4989542;28;20041;-69
2023/05/03 11:01:44;;;;;;;8.85;1.80;;;15.20;99.90;;;;;;4989686;28;20103;-70
2023/05/03 11:04:16;;;;;;;5.05;1.98;;;15.20;99.90;;;;;;4990746;28;20033;-70
2023/05/03 11:06:42;;;;;;;8.75;2.20;;;15.40;99.90;;;;;;4984988;28;20034;-67
2023/05/03 11:09:09;;;;;;;7.63;1.95;;;15.20;99.90;;;;;;4988307;28;20021;-67
2023/05/03 11:11:38;;;;;;;4.32;1.90;;;15.30;99.90;;;;;;4990957;28;20049;-69
2023/05/03 11:14:05;;;;;;;7.57;2.20;;;15.20;99.90;;;;;;4975592;28;20053;-69
2023/05/03 11:16:31;;;;;;;7.43;1.90;;;15.30;99.90;;;;;;4992739;28;20082;-68
2023/05/03 11:18:56;;;;;;;5.97;2.38;;;15.30;99.90;;;;;;4975792;28;20046;-68
2023/05/03 11:21:22;;;;;;;3.35;2.15;;;15.10;99.90;;;;;;4975018;28;20030;-68
2023/05/03 11:23:48;;;;;;;7.85;2.35;;;15.00;99.90;;;;;;4975020;28;20578;-67
2023/05/03 11:26:13;;;;;;;5.90;2.00;;;15.10;99.90;;;;;;4992239;28;20113;-68
2023/05/03 11:28:40;;;;;;;7.13;1.95;;;15.40;99.90;;;;;;4975029;28;20031;-68
2023/05/03 11:31:07;;;;;;;4.95;1.95;;;15.80;99.90;;;;;;4988419;28;20022;-69
2023/05/03 11:33:34;;;;;;;5.97;2.00;;;15.90;99.90;;;;;;4976127;28;20033;-68
2023/05/03 11:36:08;;;;;;;7.47;1.90;;;15.90;99.90;;;;;;4993435;28;20045;-68
2023/05/03 11:38:35;;;;;;;6.18;1.88;;;16.10;99.90;;;;;;4992391;28;20025;-69
2023/05/03 11:41:13;;;;;;;4.13;1.92;;;15.90;99.90;;;;;;4991225;28;20573;-68
2023/05/03 11:43:47;;;;;;;7.28;2.03;;;15.70;99.90;;;;;;4971906;28;20471;-69
2023/05/03 11:46:23;;;;;;;4.32;1.80;;;15.40;99.90;;;;;;4992202;28;20032;-69
2023/05/03 11:48:48;;;;;;;5.85;2.42;;;15.10;99.90;;;;;;4975272;28;20066;-67
2023/05/03 11:51:15;;;;;;;8.40;2.10;;;15.00;99.90;;;;;;4992867;28;20061;-68
2023/05/03 11:53:42;;;;;;;6.32;2.50;;;14.80;99.90;;;;;;4993377;28;20054;-68
2023/05/03 11:56:17;;;;;;;6.90;2.22;;;14.80;99.90;;;;;;4991872;28;20022;-68
2023/05/03 11:58:57;;;;;;;7.70;2.10;;;14.50;99.90;;;;;;4973957;28;20600;-72
2023/05/03 12:01:24;;;;;;;7.82;1.90;;;14.70;99.90;;;;;;4988880;28;20166;-69
2023/05/03 12:03:57;;;;;;;5.28;2.00;;;15.00;99.90;;;;;;4973143;28;20046;-69
2023/05/03 12:06:23;;;;;;;4.47;1.95;;;15.30;99.90;;;;;;4972743;28;20035;-70
2023/05/03 12:08:49;;;;;;;6.47;2.00;;;15.40;99.90;;;;;;4991107;28;20026;-68
2023/05/03 12:11:15;;;;;;;6.15;2.20;;;15.60;99.90;;;;;;4990912;28;20029;-68
2023/05/03 12:13:41;;;;;;;9.38;2.90;;;15.90;99.90;;;;;;4984225;28;20035;-69
2023/05/03 12:16:08;;;;;;;4.80;2.53;;;16.40;99.90;;;;;;4987237;28;20102;-69
2023/05/03 12:18:55;;;;;;;6.88;2.17;;;16.80;99.90;;;;;;4969252;28;20027;-69
2023/05/03 12:21:24;;;;;;;5.40;1.95;;;17.30;99.90;;;;;;4977218;28;20369;-70
2023/05/03 12:23:50;;;;;;;5.53;2.70;;;17.70;99.90;;;;;;4964459;28;20039;-68
2023/05/03 12:26:20;;;;;;;4.35;2.40;;;18.00;99.90;;;;;;4986144;28;20060;-69
2023/05/03 12:28:49;;;;;;;6.95;2.70;;;18.00;99.90;;;;;;4987925;28;20054;-70
2023/05/03 12:31:16;;;;;;;8.48;3.28;;;17.90;99.90;;;;;;4970269;28;20023;-69
2023/05/03 12:33:41;;;;;;;8.02;2.92;;;17.60;99.90;;;;;;4987489;28;20030;-68
2023/05/03 12:36:08;;;;;;;6.80;2.95;;;17.30;99.90;;;;;;4988582;28;20052;-68
2023/05/03 12:38:34;;;;;;;5.28;2.60;;;16.90;99.90;;;;;;4985684;28;20023;-71
2023/05/03 12:40:59;;;;;;;7.80;2.83;;;16.50;99.90;;;;;;4980729;28;20045;-70
2023/05/03 12:43:25;;;;;;;6.22;2.83;;;16.30;99.90;;;;;;4987786;28;20019;-71
2023/05/03 12:45:51;;;;;;;5.38;2.70;;;16.20;99.90;;;;;;4987119;28;20095;-67
2023/05/03 12:48:16;;;;;;;5.82;2.90;;;16.20;99.90;;;;;;4985788;28;20054;-69
2023/05/03 12:50:42;;;;;;;9.88;3.00;;;16.10;99.90;;;;;;4973470;28;20039;-69